Time;durP1;ratioP1;P1;durP2;ratioP2;P2;SDS_P1;SDS_P2;PMS_P1;PMS_P2;Temp;Humidity;BMP_temperature;BMP_pressure;BME280_temperature;BME280_humidity;BME280_pressure;Samples;Min_cycle;Max_cycle;Signal;HPM_P1;HPM_P2
2022/02/16 00:02:19;;;;;;;3.08;1.20;;;;;;;4.51;100.00;97613.50;10378224;28;20064;-62
2022/02/16 00:07:22;;;;;;;2.42;1.10;;;;;;;4.47;100.00;97606.75;10369313;28;20069;-62
2022/02/16 00:12:27;;;;;;;4.15;1.30;;;;;;;4.47;100.00;97609.44;10376363;28;20049;-64
2022/02/16 00:17:31;;;;;;;4.07;1.25;;;;;;;4.49;100.00;97618.13;10365530;28;20048;-60
2022/02/16 00:22:34;;;;;;;3.03;1.10;;;;;;;4.49;100.00;97612.81;10372879;28;20152;-62
2022/02/16 00:27:40;;;;;;;2.40;1.00;;;;;;;4.52;100.00;97601.00;10364521;28;20460;-62
2022/02/16 00:32:45;;;;;;;2.45;1.10;;;;;;;4.54;100.00;97599.84;10368422;28;20120;-60
2022/02/16 00:37:48;;;;;;;5.97;1.35;;;;;;;4.58;100.00;97587.94;10364544;28;20180;-60
2022/02/16 00:42:53;;;;;;;2.90;1.08;;;;;;;4.61;100.00;97606.31;10362237;28;20088;-59
2022/02/16 00:47:57;;;;;;;3.25;1.17;;;;;;;4.63;100.00;97603.50;10359632;28;20097;-61
2022/02/16 00:53:01;;;;;;;2.97;1.10;;;;;;;4.63;100.00;97599.03;10358336;28;20049;-59
2022/02/16 00:58:07;;;;;;;2.85;1.20;;;;;;;4.65;100.00;97600.66;10376588;28;20372;-60
2022/02/16 01:03:10;;;;;;;2.78;1.15;;;;;;;4.67;100.00;97591.56;10387415;28;20132;-59
2022/02/16 01:08:14;;;;;;;3.75;1.20;;;;;;;4.68;100.00;97579.03;10390392;28;20072;-62
2022/02/16 01:13:19;;;;;;;1.90;1.10;;;;;;;4.71;100.00;97570.75;10391021;28;20136;-59
2022/02/16 01:18:23;;;;;;;2.47;1.30;;;;;;;4.61;100.00;97568.97;10391290;28;20129;-61
2022/02/16 01:23:30;;;;;;;3.08;1.20;;;;;;;4.63;100.00;97553.66;10396515;28;20057;-59
2022/02/16 01:28:36;;;;;;;3.53;1.15;;;;;;;4.66;100.00;97565.00;10387531;28;20165;-60
2022/02/16 01:33:41;;;;;;;3.70;1.20;;;;;;;4.66;100.00;97552.53;10389236;28;20053;-60
2022/02/16 01:38:44;;;;;;;2.40;1.05;;;;;;;4.66;100.00;97547.19;10382633;28;20568;-56
2022/02/16 01:43:59;;;;;;;;;;;;;;;4.59;100.00;97552.25;10371756;28;20050;-60
2022/02/16 01:49:03;;;;;;;2.28;1.20;;;;;;;4.63;100.00;97535.00;10378239;28;20374;-60
2022/02/16 01:54:10;;;;;;;3.58;0.90;;;;;;;4.61;100.00;97523.63;10370599;28;20390;-60
2022/02/16 01:59:19;;;;;;;2.22;1.00;;;;;;;4.61;100.00;97520.09;10380337;28;20152;-62
2022/02/16 02:04:41;;;;;;;1.80;1.00;;;;;;;4.55;100.00;97508.19;10373399;28;20049;-60
2022/02/16 02:09:48;;;;;;;1.63;0.90;;;;;;;4.55;100.00;97494.84;10370357;28;20514;-61
2022/02/16 02:14:53;;;;;;;2.78;1.10;;;;;;;4.51;100.00;97492.63;10371071;28;20055;-61
2022/02/16 02:20:23;;;;;;;1.60;0.95;;;;;;;4.49;100.00;97479.44;10369874;28;20061;-59
2022/02/16 02:25:27;;;;;;;1.95;0.82;;;;;;;4.51;100.00;97469.47;10366895;28;20061;-61
2022/02/16 02:30:30;;;;;;;1.67;0.80;;;;;;;4.46;100.00;97485.06;10361581;28;20582;-62
2022/02/16 02:35:35;;;;;;;1.50;1.00;;;;;;;4.46;100.00;97450.38;10367346;28;20050;-61
2022/02/16 02:40:38;;;;;;;2.47;0.90;;;;;;;4.48;100.00;97430.56;10366977;28;20540;-62
2022/02/16 02:45:41;;;;;;;2.63;0.90;;;;;;;4.49;100.00;97436.75;10373932;28;20050;-63
2022/02/16 02:50:46;;;;;;;2.38;0.80;;;;;;;4.51;100.00;97423.28;10380880;28;20128;-59
2022/02/16 02:55:50;;;;;;;2.88;0.90;;;;;;;4.49;100.00;97415.44;10380926;28;20049;-60
2022/02/16 03:00:53;;;;;;;2.72;0.90;;;;;;;4.43;100.00;97400.00;10386632;28;20049;-59
2022/02/16 03:05:58;;;;;;;1.23;0.70;;;;;;;4.43;100.00;97405.34;10384179;28;20057;-60
2022/02/16 03:11:04;;;;;;;1.20;0.70;;;;;;;4.44;100.00;97401.69;10386017;28;20041;-62
2022/02/16 03:16:08;;;;;;;1.25;0.63;;;;;;;4.44;100.00;97391.00;10381896;28;20104;-60
2022/02/16 03:21:16;;;;;;;1.40;0.70;;;;;;;4.44;100.00;97385.69;10368576;28;20063;-58
2022/02/16 03:26:19;;;;;;;1.08;0.70;;;;;;;4.39;100.00;97378.13;10387813;28;20111;-57
2022/02/16 03:31:24;;;;;;;0.63;0.45;;;;;;;4.40;100.00;97357.66;10385917;28;20042;-60
2022/02/16 03:36:38;;;;;;;0.73;0.50;;;;;;;4.38;100.00;97362.28;10382290;28;20038;-56
2022/02/16 03:41:41;;;;;;;2.17;0.50;;;;;;;4.36;100.00;97366.94;10374871;28;20501;-58
2022/02/16 03:46:46;;;;;;;0.68;0.65;;;;;;;4.33;100.00;97354.75;10374374;28;20054;-59
2022/02/16 03:51:53;;;;;;;0.47;0.32;;;;;;;4.32;100.00;97355.72;10365974;28;20160;-58
2022/02/16 03:56:56;;;;;;;0.75;0.50;;;;;;;4.29;100.00;97351.50;10375042;28;20049;-57
2022/02/16 04:02:01;;;;;;;0.50;0.40;;;;;;;4.29;100.00;97348.00;10378801;28;20046;-62
2022/02/16 04:07:06;;;;;;;0.50;0.40;;;;;;;4.29;100.00;97327.50;10372773;28;20053;-60
2022/02/16 04:12:09;;;;;;;0.88;0.50;;;;;;;4.26;100.00;97316.31;10366096;28;20045;-60
2022/02/16 04:17:13;;;;;;;0.40;0.40;;;;;;;4.29;100.00;97330.19;10370800;28;20052;-58
2022/02/16 04:22:18;;;;;;;0.47;0.40;;;;;;;4.28;100.00;97327.66;10365946;28;20056;-57
2022/02/16 04:27:21;;;;;;;0.28;0.28;;;;;;;4.25;100.00;97311.97;10362729;28;20760;-58
2022/02/16 04:32:24;;;;;;;0.30;0.30;;;;;;;4.26;100.00;97318.97;10359542;28;20199;-63
2022/02/16 04:37:29;;;;;;;0.40;0.35;;;;;;;4.19;100.00;97305.41;10382542;28;20465;-59
2022/02/16 04:42:33;;;;;;;0.40;0.40;;;;;;;4.20;100.00;97293.75;10374997;28;20160;-57
2022/02/16 04:47:36;;;;;;;0.30;0.30;;;;;;;4.19;100.00;97301.91;10387088;28;20477;-64
2022/02/16 04:52:42;;;;;;;1.02;0.20;;;;;;;4.20;100.00;97291.09;10391719;28;20049;-61
2022/02/16 04:58:01;;;;;;;0.40;0.40;;;;;;;4.16;100.00;97287.06;10368571;28;20437;-60
2022/02/16 05:03:06;;;;;;;0.52;0.20;;;;;;;4.15;100.00;97274.72;10380050;28;21293;-60
2022/02/16 05:08:12;;;;;;;0.15;0.15;;;;;;;4.12;100.00;97280.34;10376342;28;20583;-62
2022/02/16 05:13:16;;;;;;;0.40;0.20;;;;;;;4.13;100.00;97280.19;10370004;28;20103;-63
2022/02/16 05:18:19;;;;;;;0.10;0.10;;;;;;;4.12;100.00;97264.34;10377862;28;20498;-60
2022/02/16 05:23:29;;;;;;;0.30;0.30;;;;;;;4.12;100.00;97257.16;10373150;28;20112;-61
2022/02/16 05:28:39;;;;;;;0.30;0.28;;;;;;;4.10;100.00;97260.97;10380067;28;20044;-60
2022/02/16 05:33:44;;;;;;;0.40;0.40;;;;;;;4.11;100.00;97257.34;10367340;28;20092;-60
2022/02/16 05:38:53;;;;;;;0.57;0.32;;;;;;;4.12;100.00;97248.34;10371354;28;20426;-60
2022/02/16 05:43:57;;;;;;;0.20;0.20;;;;;;;4.10;100.00;97245.84;10378379;28;20169;-63
2022/02/16 05:49:00;;;;;;;0.25;0.25;;;;;;;4.11;100.00;97233.34;10380799;28;20129;-61
2022/02/16 05:54:06;;;;;;;1.48;0.30;;;;;;;4.10;100.00;97229.00;10386364;28;20054;-61
2022/02/16 05:59:11;;;;;;;0.30;0.30;;;;;;;4.12;100.00;97232.38;10370386;28;20461;-63
2022/02/16 06:04:16;;;;;;;0.73;0.30;;;;;;;4.12;100.00;97216.38;10373968;28;20053;-60
2022/02/16 06:09:23;;;;;;;0.57;0.30;;;;;;;4.09;100.00;97211.31;10371434;28;20101;-60
2022/02/16 06:14:26;;;;;;;0.75;0.30;;;;;;;4.09;100.00;97201.53;10369520;28;20121;-60
2022/02/16 06:19:37;;;;;;;0.95;0.30;;;;;;;4.11;100.00;97188.91;10373344;28;20053;-61
2022/02/16 06:24:43;;;;;;;0.40;0.40;;;;;;;4.07;100.00;97181.31;10369973;28;20042;-61
2022/02/16 06:29:48;;;;;;;0.45;0.30;;;;;;;4.07;100.00;97160.00;10389022;28;20509;-63
2022/02/16 06:35:12;;;;;;;0.90;0.40;;;;;;;4.08;100.00;97167.88;10386476;28;20061;-60
2022/02/16 06:40:17;;;;;;;0.28;0.28;;;;;;;4.07;100.00;97158.19;10391250;28;20133;-59
2022/02/16 06:45:24;;;;;;;0.60;0.60;;;;;;;4.07;100.00;97155.53;10395079;28;20192;-59
2022/02/16 06:50:27;;;;;;;0.25;0.25;;;;;;;4.09;100.00;97155.38;10372881;28;20044;-61
2022/02/16 06:55:38;;;;;;;0.30;0.30;;;;;;;4.11;100.00;97151.56;10383804;28;20100;-57
2022/02/16 07:00:41;;;;;;;0.63;0.40;;;;;;;4.11;100.00;97135.59;10371621;28;20482;-61
2022/02/16 07:05:45;;;;;;;1.75;0.40;;;;;;;4.13;100.00;97133.59;10381295;28;20074;-62
2022/02/16 07:10:56;;;;;;;0.50;0.30;;;;;;;4.18;100.00;97122.47;10381996;28;20154;-56
2022/02/16 07:15:59;;;;;;;0.70;0.30;;;;;;;4.24;100.00;97123.66;10385968;28;20060;-58
2022/02/16 07:21:03;;;;;;;0.30;0.30;;;;;;;4.26;100.00;97095.91;10375893;28;20053;-55
2022/02/16 07:26:09;;;;;;;0.55;0.47;;;;;;;4.32;100.00;97095.25;10374456;28;20067;-58
2022/02/16 07:31:14;;;;;;;0.40;0.35;;;;;;;4.40;100.00;97085.66;10374007;28;20467;-57
2022/02/16 07:36:18;;;;;;;1.58;0.30;;;;;;;4.42;100.00;97078.31;10370447;28;20061;-57
2022/02/16 07:41:22;;;;;;;0.40;0.40;;;;;;;4.43;100.00;97066.66;10372933;28;20049;-64
2022/02/16 07:46:39;;;;;;;0.30;0.30;;;;;;;4.50;100.00;97053.56;10376825;28;20437;-60
2022/02/16 07:51:43;;;;;;;1.15;0.32;;;;;;;4.55;100.00;97045.94;10369059;28;20069;-56
2022/02/16 07:56:57;;;;;;;0.20;0.20;;;;;;;4.65;100.00;97040.47;10377494;28;20133;-61
2022/02/16 08:02:00;;;;;;;0.52;0.45;;;;;;;4.72;100.00;97046.88;10375371;28;20046;-58
2022/02/16 08:07:05;;;;;;;0.25;0.25;;;;;;;4.73;100.00;97021.84;10373561;28;20037;-63
2022/02/16 08:12:13;;;;;;;0.28;0.20;;;;;;;4.81;100.00;97003.22;10378475;28;20046;-57
2022/02/16 08:17:16;;;;;;;0.40;0.40;;;;;;;4.98;100.00;96982.75;10365184;28;20046;-63
2022/02/16 08:22:19;;;;;;;0.30;0.30;;;;;;;5.17;100.00;96987.00;10379681;28;20053;-57
2022/02/16 08:27:23;;;;;;;0.20;0.20;;;;;;;5.37;100.00;96973.34;10364840;28;20053;-60
2022/02/16 08:32:34;;;;;;;2.20;0.40;;;;;;;5.63;100.00;96991.09;10373770;28;20433;-56
2022/02/16 08:37:44;;;;;;;0.20;0.20;;;;;;;5.83;100.00;96996.97;10377366;28;20049;-57
2022/02/16 08:42:49;;;;;;;0.55;0.10;;;;;;;5.91;100.00;96994.28;10378044;28;20056;-62
2022/02/16 08:47:53;;;;;;;0.10;0.10;;;;;;;5.90;100.00;96965.06;10379390;28;20057;-64
2022/02/16 08:52:56;;;;;;;0.10;0.10;;;;;;;5.94;100.00;96977.09;10372902;28;20042;-55
2022/02/16 08:58:00;;;;;;;0.20;0.20;;;;;;;5.91;100.00;96972.06;10382717;28;20050;-60
2022/02/16 09:03:03;;;;;;;0.40;0.20;;;;;;;5.98;100.00;96952.53;10369600;28;20417;-62
2022/02/16 09:08:07;;;;;;;0.20;0.20;;;;;;;6.05;100.00;96936.69;10376450;28;20045;-63
2022/02/16 09:13:11;;;;;;;0.73;0.32;;;;;;;6.09;100.00;96923.81;10372639;28;20037;-57
2022/02/16 09:18:17;;;;;;;0.45;0.20;;;;;;;6.09;100.00;96900.56;10370804;28;20041;-59
2022/02/16 09:23:20;;;;;;;0.20;0.10;;;;;;;6.13;100.00;96907.25;10376043;28;20539;-57
2022/02/16 09:28:26;;;;;;;0.95;0.40;;;;;;;6.23;100.00;96891.03;10391773;28;20057;-61
2022/02/16 09:33:29;;;;;;;0.20;0.20;;;;;;;6.26;100.00;96890.66;10372125;28;20046;-62
2022/02/16 09:38:33;;;;;;;0.40;0.40;;;;;;;6.30;100.00;96885.78;10371832;28;20280;-58
2022/02/16 09:43:38;;;;;;;0.38;0.32;;;;;;;6.34;100.00;96886.31;10370568;28;20042;-58
2022/02/16 09:48:41;;;;;;;0.57;0.43;;;;;;;6.36;100.00;96870.91;10369943;28;20091;-60
2022/02/16 09:53:45;;;;;;;0.60;0.40;;;;;;;6.34;100.00;96857.72;10374562;28;20076;-63
2022/02/16 09:58:50;;;;;;;0.38;0.30;;;;;;;6.36;100.00;96841.47;10372170;28;20153;-61
2022/02/16 10:04:01;;;;;;;0.28;0.20;;;;;;;6.42;100.00;96836.25;10374550;28;20124;-61
2022/02/16 10:09:05;;;;;;;1.17;0.50;;;;;;;6.40;100.00;96832.09;10368577;28;20045;-61
2022/02/16 10:14:21;;;;;;;1.05;0.57;;;;;;;6.25;100.00;96840.03;10367822;28;20061;-57
2022/02/16 10:19:24;;;;;;;0.75;0.50;;;;;;;6.04;100.00;96837.91;10389196;28;20069;-60
2022/02/16 10:24:27;;;;;;;3.28;0.70;;;;;;;5.92;100.00;96837.44;10388319;28;20073;-58
2022/02/16 10:29:34;;;;;;;1.33;0.50;;;;;;;5.72;100.00;96803.06;10386453;28;20049;-58
2022/02/16 10:34:49;;;;;;;0.60;0.50;;;;;;;5.69;100.00;96804.25;10384881;28;20055;-57
2022/02/16 10:40:13;;;;;;;0.85;0.65;;;;;;;5.80;100.00;96795.03;10379097;28;20045;-62
2022/02/16 10:45:21;;;;;;;0.80;0.73;;;;;;;5.79;100.00;96766.66;10385088;28;20422;-61
2022/02/16 10:50:25;;;;;;;0.95;0.60;;;;;;;5.84;100.00;96758.94;10383355;28;20608;-57
2022/02/16 10:55:44;;;;;;;0.80;0.70;;;;;;;5.94;100.00;96741.88;10384108;28;20066;-55
2022/02/16 11:00:54;;;;;;;2.25;0.65;;;;;;;6.05;100.00;96728.16;10375587;28;20047;-56
2022/02/16 11:05:59;;;;;;;0.75;0.60;;;;;;;6.24;100.00;96731.41;10378664;28;20073;-62
2022/02/16 11:11:03;;;;;;;1.02;0.57;;;;;;;6.35;100.00;96743.56;10373615;28;20049;-56
2022/02/16 11:16:09;;;;;;;0.47;0.40;;;;;;;6.41;100.00;96749.00;10390967;28;20045;-62
2022/02/16 11:21:17;;;;;;;0.30;0.30;;;;;;;6.45;100.00;96750.31;10388806;28;20972;-59
2022/02/16 11:26:40;;;;;;;0.30;0.30;;;;;;;6.54;100.00;96728.88;10376811;28;20081;-58
2022/02/16 11:31:44;;;;;;;0.32;0.30;;;;;;;6.67;100.00;96734.47;10368182;28;20578;-62
2022/02/16 11:36:52;;;;;;;0.28;0.28;;;;;;;6.73;100.00;96724.88;10371568;28;20045;-57
2022/02/16 11:41:57;;;;;;;0.75;0.40;;;;;;;6.65;100.00;96715.06;10379501;28;20119;-57
2022/02/16 11:47:01;;;;;;;0.60;0.40;;;;;;;6.65;100.00;96731.13;10370588;28;20053;-63
2022/02/16 11:52:33;;;;;;;0.55;0.30;;;;;;;6.62;100.00;96723.47;10364168;28;20491;-64
2022/02/16 11:57:48;;;;;;;1.37;0.30;;;;;;;6.76;100.00;96701.28;10372090;28;20091;-64
2022/02/16 12:03:23;;;;;;;0.50;0.30;;;;;;;6.93;100.00;96733.25;10368839;28;20046;-56
2022/02/16 12:08:29;;;;;;;0.20;0.20;;;;;;;7.00;100.00;96731.53;10367913;28;20124;-65
2022/02/16 12:13:34;;;;;;;0.30;0.30;;;;;;;6.98;100.00;96717.50;10381509;28;20045;-62
2022/02/16 12:18:41;;;;;;;0.43;0.30;;;;;;;7.00;100.00;96725.34;10367261;28;20038;-58
2022/02/16 12:23:46;;;;;;;0.22;0.22;;;;;;;7.01;100.00;96695.72;10389384;28;20049;-63
2022/02/16 12:28:55;;;;;;;0.10;0.10;;;;;;;7.06;100.00;96693.31;10388931;28;20053;-61
2022/02/16 12:34:05;;;;;;;0.45;0.30;;;;;;;7.09;100.00;96687.63;10390417;28;20049;-61
2022/02/16 12:39:10;;;;;;;0.13;0.13;;;;;;;7.14;100.00;96675.50;10373407;28;20418;-59
2022/02/16 12:44:15;;;;;;;0.17;0.17;;;;;;;7.24;100.00;96666.22;10381188;28;20046;-61
2022/02/16 12:56:22;;;;;;;0.20;0.10;;;;;;;7.45;100.00;96626.31;10379632;28;20116;-57
2022/02/16 13:01:30;;;;;;;0.22;0.10;;;;;;;7.59;100.00;96622.75;10373924;28;20037;-61
2022/02/16 13:06:40;;;;;;;0.10;0.10;;;;;;;7.76;100.00;96617.22;10427346;28;20052;-58
2022/02/16 13:11:50;;;;;;;0.00;0.00;;;;;;;7.94;100.00;96622.97;10432043;28;20088;-60
2022/02/16 13:16:56;;;;;;;0.52;0.10;;;;;;;8.11;100.00;96586.06;10420983;28;20097;-61
2022/02/16 13:22:03;;;;;;;0.00;0.00;;;;;;;8.21;100.00;96593.75;10442095;28;20120;-59
2022/02/16 13:27:08;;;;;;;0.10;0.10;;;;;;;8.32;100.00;96579.84;10440347;28;20094;-62
2022/02/16 13:32:27;;;;;;;0.13;0.10;;;;;;;8.33;100.00;96576.13;10445373;28;20126;-63
2022/02/16 13:37:35;;;;;;;0.10;0.03;;;;;;;8.46;100.00;96558.47;10440722;28;20110;-63
2022/02/16 13:48:10;;;;;;;0.00;0.00;;;;;;;8.56;100.00;96564.38;10592516;27;20555;-64
2022/02/16 13:53:14;;;;;;;0.10;0.10;;;;;;;8.60;100.00;96613.97;10554222;28;20052;-60
2022/02/16 13:58:18;;;;;;;0.10;0.10;;;;;;;8.64;100.00;96609.84;10553902;28;20036;-61
2022/02/16 14:03:43;;;;;;;0.03;0.03;;;;;;;8.62;100.00;96601.19;10554712;28;20071;-61
2022/02/16 14:08:46;;;;;;;0.10;0.10;;;;;;;8.71;100.00;96579.56;10556677;28;20050;-61
2022/02/16 14:13:50;;;;;;;0.00;0.00;;;;;;;8.74;100.00;96580.00;10557957;28;20035;-62
2022/02/16 14:24:17;;;;;;;0.10;0.10;;;;;;;8.77;100.00;96581.47;10551820;28;20046;-62
2022/02/16 14:29:20;;;;;;;0.47;0.10;;;;;;;8.78;100.00;96564.31;10555591;28;20067;-60
2022/02/16 14:34:25;;;;;;;0.10;0.10;;;;;;;8.76;100.00;96552.97;10556890;28;20048;-62
2022/02/16 14:39:28;;;;;;;0.17;0.08;;;;;;;8.75;100.00;96540.56;10554662;28;20773;-62
2022/02/16 14:44:32;;;;;;;0.45;0.10;;;;;;;8.76;100.00;96569.91;10554487;28;20133;-60
2022/02/16 14:49:37;;;;;;;0.13;0.10;;;;;;;8.73;100.00;96585.56;10554028;28;20050;-62
2022/02/16 14:54:43;;;;;;;0.10;0.10;;;;;;;8.72;100.00;96590.09;10550979;28;20077;-61
2022/02/16 14:59:46;;;;;;;0.10;0.10;;;;;;;8.75;100.00;96583.53;10525776;28;20040;-63
2022/02/16 15:04:50;;;;;;;0.17;0.17;;;;;;;8.77;100.00;96570.72;10522204;28;20804;-62
2022/02/16 15:09:53;;;;;;;0.68;0.20;;;;;;;8.83;100.00;96564.59;10524566;28;20044;-61
2022/02/16 15:14:56;;;;;;;0.10;0.10;;;;;;;8.81;100.00;96582.72;10524144;28;20028;-62
2022/02/16 15:20:01;;;;;;;0.00;0.00;;;;;;;8.83;100.00;96572.63;10524660;28;20051;-59
2022/02/16 15:25:05;;;;;;;0.10;0.10;;;;;;;8.90;100.00;96592.28;10523652;28;20089;-61
2022/02/16 15:30:26;;;;;;;0.00;0.00;;;;;;;8.96;100.00;96579.13;10523352;28;20367;-62
2022/02/16 15:35:30;;;;;;;0.40;0.05;;;;;;;8.95;100.00;96605.13;10526788;28;20119;-65
2022/02/16 15:40:34;;;;;;;0.10;0.10;;;;;;;8.99;100.00;96584.94;10526241;28;20076;-63
2022/02/16 15:45:37;;;;;;;0.20;0.20;;;;;;;9.00;100.00;96596.50;10525955;27;20520;-60
2022/02/16 15:50:42;;;;;;;0.10;0.10;;;;;;;9.03;100.00;96601.47;10484380;28;20044;-62
2022/02/16 15:55:45;;;;;;;0.00;0.00;;;;;;;9.03;100.00;96596.94;10478630;28;20527;-65
2022/02/16 16:00:48;;;;;;;0.32;0.10;;;;;;;9.05;100.00;96570.72;10481258;28;20047;-63
2022/02/16 16:05:55;;;;;;;0.00;0.00;;;;;;;9.07;100.00;96597.38;10484647;28;20044;-60
2022/02/16 16:10:59;;;;;;;0.30;0.20;;;;;;;9.01;100.00;96607.06;10480873;28;20075;-60
2022/02/16 16:16:04;;;;;;;0.10;0.10;;;;;;;9.02;100.00;96594.44;10484241;28;20548;-60
2022/02/16 16:21:10;;;;;;;0.10;0.10;;;;;;;8.99;100.00;96584.09;10480764;28;20090;-61
2022/02/16 16:26:13;;;;;;;0.10;0.10;;;;;;;8.97;100.00;96599.59;10483897;28;20120;-63
2022/02/16 16:31:16;;;;;;;0.10;0.10;;;;;;;8.94;100.00;96555.13;10480414;28;20048;-60
2022/02/16 16:36:20;;;;;;;0.30;0.30;;;;;;;8.86;100.00;96558.81;10481941;28;20029;-57
2022/02/16 16:41:24;;;;;;;0.22;0.22;;;;;;;8.87;100.00;96559.66;10483370;28;20051;-63
2022/02/16 16:46:28;;;;;;;0.38;0.20;;;;;;;8.79;100.00;96552.56;10479940;28;20484;-63
2022/02/16 16:51:32;;;;;;;0.10;0.10;;;;;;;8.80;100.00;96556.91;10475026;28;20048;-60
2022/02/16 16:56:38;;;;;;;0.20;0.15;;;;;;;8.81;100.00;96545.16;10478463;28;20048;-59
2022/02/16 17:01:42;;;;;;;0.10;0.10;;;;;;;8.88;100.00;96556.75;10475465;28;20440;-61
2022/02/16 17:06:46;;;;;;;0.10;0.10;;;;;;;8.93;100.00;96548.94;10477509;28;20044;-62
2022/02/16 17:11:51;;;;;;;0.40;0.28;;;;;;;8.96;100.00;96565.69;10474882;28;20397;-59
2022/02/16 17:16:56;;;;;;;0.65;0.65;;;;;;;9.02;100.00;96575.63;10477661;28;20098;-62
2022/02/16 17:22:00;;;;;;;0.17;0.17;;;;;;;9.04;100.00;96558.31;10478008;28;20423;-62
2022/02/16 17:27:04;;;;;;;0.17;0.17;;;;;;;9.07;100.00;96543.66;10478494;28;20298;-64
2022/02/16 17:32:08;;;;;;;0.05;0.05;;;;;;;9.09;100.00;96544.28;10477456;28;20466;-61
2022/02/16 17:37:13;;;;;;;0.10;0.10;;;;;;;9.16;100.00;96525.53;10475714;28;20037;-64
2022/02/16 17:42:16;;;;;;;0.10;0.10;;;;;;;9.15;100.00;96519.31;10478471;28;20740;-62
2022/02/16 17:47:22;;;;;;;0.20;0.20;;;;;;;9.17;100.00;96506.50;10478197;28;20165;-67
2022/02/16 17:52:31;;;;;;;0.30;0.30;;;;;;;9.18;100.00;96501.94;10478966;28;20047;-61
2022/02/16 17:57:35;;;;;;;0.28;0.28;;;;;;;9.20;100.00;96503.44;10475907;28;20041;-60
2022/02/16 18:02:38;;;;;;;0.22;0.22;;;;;;;9.24;100.00;96493.94;10478112;28;20511;-59
2022/02/16 18:07:48;;;;;;;0.30;0.30;;;;;;;9.24;100.00;96506.53;10477171;28;20049;-62
2022/02/16 18:12:51;;;;;;;0.28;0.28;;;;;;;9.29;100.00;96489.81;10477746;28;20155;-62
2022/02/16 18:17:54;;;;;;;0.20;0.20;;;;;;;9.33;100.00;96464.22;10478156;28;20123;-61
2022/02/16 18:22:59;;;;;;;0.30;0.30;;;;;;;9.35;100.00;96471.03;10475587;28;20118;-62
2022/02/16 18:28:03;;;;;;;0.40;0.40;;;;;;;9.43;100.00;96466.50;10476013;28;20040;-63
2022/02/16 18:33:07;;;;;;;0.20;0.20;;;;;;;9.49;100.00;96445.00;10480592;28;20117;-60
2022/02/16 18:38:13;;;;;;;0.10;0.10;;;;;;;9.59;100.00;96455.38;10482273;28;20416;-60
2022/02/16 18:43:16;;;;;;;0.10;0.10;;;;;;;9.66;100.00;96450.03;10479360;28;20059;-65
2022/02/16 18:48:19;;;;;;;0.10;0.10;;;;;;;9.74;100.00;96422.94;10479546;28;20053;-63
2022/02/16 18:53:24;;;;;;;0.10;0.10;;;;;;;9.82;100.00;96422.72;10484864;28;20489;-64
2022/02/16 18:58:27;;;;;;;1.67;0.22;;;;;;;9.96;100.00;96399.38;10483279;28;20455;-60
2022/02/16 19:03:30;;;;;;;0.10;0.10;;;;;;;10.04;100.00;96398.34;10481537;28;20054;-63
2022/02/16 19:08:35;;;;;;;0.25;0.13;;;;;;;10.04;100.00;96403.72;10482827;28;20147;-64
2022/02/16 19:13:40;;;;;;;0.20;0.20;;;;;;;9.96;100.00;96418.19;10482642;28;20041;-65
2022/02/16 19:18:43;;;;;;;0.28;0.10;;;;;;;9.99;100.00;96392.75;10482799;28;20094;-63
2022/02/16 19:23:48;;;;;;;0.13;0.10;;;;;;;10.04;100.00;96360.69;10482877;28;20153;-65
2022/02/16 19:28:51;;;;;;;0.20;0.20;;;;;;;10.05;100.00;96351.56;10482783;28;20050;-65
2022/02/16 19:33:54;;;;;;;0.30;0.20;;;;;;;10.13;100.00;96345.13;10484837;28;20052;-65
2022/02/16 19:38:59;;;;;;;0.45;0.20;;;;;;;10.29;100.00;96336.63;10482544;28;20123;-65
2022/02/16 19:44:02;;;;;;;0.20;0.20;;;;;;;10.29;100.00;96341.19;10479259;28;20048;-64
2022/02/16 19:49:07;;;;;;;0.30;0.30;;;;;;;10.33;100.00;96337.84;10482493;28;20036;-65
2022/02/16 19:54:12;;;;;;;0.30;0.30;;;;;;;10.38;100.00;96323.78;10479292;28;20421;-61
2022/02/16 19:59:15;;;;;;;0.30;0.30;;;;;;;10.29;100.00;96285.47;10479545;28;20059;-66
2022/02/16 20:04:20;;;;;;;0.45;0.30;;;;;;;10.23;100.00;96274.75;10485632;28;20103;-65
2022/02/16 20:09:24;;;;;;;0.65;0.30;;;;;;;10.14;100.00;96248.06;10481321;28;20398;-66
2022/02/16 20:14:28;;;;;;;0.30;0.30;;;;;;;10.15;100.00;96255.13;10481133;28;20056;-66
2022/02/16 20:19:31;;;;;;;0.80;0.40;;;;;;;10.17;100.00;96218.03;10477163;28;20052;-67
2022/02/16 20:24:52;;;;;;;0.60;0.40;;;;;;;10.18;100.00;96205.41;10479497;28;20054;-67
2022/02/16 20:29:55;;;;;;;0.65;0.50;;;;;;;10.21;100.00;96183.47;10478114;28;20128;-65
2022/02/16 20:34:58;;;;;;;2.10;0.50;;;;;;;10.15;100.00;96169.03;10478680;28;20048;-66
2022/02/16 20:40:05;;;;;;;0.35;0.35;;;;;;;10.18;100.00;96149.72;10479081;28;20112;-65
2022/02/16 20:45:08;;;;;;;1.23;0.60;;;;;;;10.16;100.00;96141.06;10477051;28;20052;-66
2022/02/16 20:50:11;;;;;;;0.30;0.30;;;;;;;10.16;100.00;96116.88;10475915;28;20505;-66
2022/02/16 20:55:17;;;;;;;0.30;0.30;;;;;;;10.21;100.00;96123.44;10479694;28;20047;-66
2022/02/16 21:00:20;;;;;;;0.20;0.20;;;;;;;10.25;100.00;96113.91;10477022;28;20403;-66
2022/02/16 21:05:25;;;;;;;0.47;0.20;;;;;;;10.31;100.00;96086.13;10476451;28;20071;-66
2022/02/16 21:10:30;;;;;;;0.15;0.10;;;;;;;10.32;100.00;96103.91;10477981;28;20055;-65
2022/02/16 21:15:37;;;;;;;0.30;0.20;;;;;;;10.43;100.00;96084.41;10479080;28;20056;-66
2022/02/16 21:20:40;;;;;;;0.10;0.10;;;;;;;10.50;100.00;96089.75;10490238;28;20074;-66
2022/02/16 21:25:47;;;;;;;1.08;0.10;;;;;;;10.55;100.00;96064.88;10478895;28;20127;-65
2022/02/16 21:30:51;;;;;;;0.45;0.10;;;;;;;10.60;100.00;96057.78;10484837;28;20055;-66
2022/02/16 21:35:57;;;;;;;0.00;0.00;;;;;;;10.67;100.00;96056.91;10481073;28;20075;-66
2022/02/16 21:41:01;;;;;;;0.10;0.10;;;;;;;10.73;100.00;96034.47;10479979;28;20560;-65
2022/02/16 21:46:09;;;;;;;0.00;0.00;;;;;;;10.91;100.00;96052.53;10480538;28;20060;-65
2022/02/16 21:51:12;;;;;;;0.15;0.00;;;;;;;10.83;100.00;96015.94;10480828;28;20044;-66
2022/02/16 21:56:17;;;;;;;0.00;0.00;;;;;;;10.74;100.00;95988.50;10479829;28;20064;-66
2022/02/16 22:01:20;;;;;;;0.45;0.10;;;;;;;10.58;100.00;95989.91;10481141;28;20493;-66
2022/02/16 22:06:24;;;;;;;0.20;0.08;;;;;;;10.56;100.00;95980.38;10482976;28;20386;-66
2022/02/16 22:11:28;;;;;;;0.00;0.00;;;;;;;10.60;100.00;95960.03;10489763;28;20048;-66
2022/02/16 22:16:31;;;;;;;0.10;0.10;;;;;;;10.69;100.00;95939.06;10477018;28;20047;-66
2022/02/16 22:21:35;;;;;;;0.28;0.10;;;;;;;10.69;100.00;95942.56;10474114;28;20057;-66
2022/02/16 22:26:39;;;;;;;0.00;0.00;;;;;;;10.74;100.00;95931.94;10488710;28;20048;-64
2022/02/16 22:31:42;;;;;;;0.00;0.00;;;;;;;10.79;100.00;95915.13;10478190;28;20040;-66
2022/02/16 22:36:45;;;;;;;0.00;0.00;;;;;;;10.90;100.00;95918.91;10488641;28;20044;-65
2022/02/16 22:41:53;;;;;;;0.00;0.00;;;;;;;11.06;100.00;95947.94;10487279;28;20044;-67
2022/02/16 22:46:57;;;;;;;0.00;0.00;;;;;;;11.13;100.00;95893.16;10471512;28;20063;-66
2022/02/16 22:52:01;;;;;;;0.35;0.00;;;;;;;11.22;100.00;95883.72;10477944;28;20059;-66
2022/02/16 22:57:05;;;;;;;0.00;0.00;;;;;;;11.38;100.00;95907.31;10488606;28;20047;-66
2022/02/16 23:13:07;;;;;;;0.05;0.00;;;;;;;11.55;100.00;95842.78;10487252;28;20090;-65
2022/02/16 23:18:14;;;;;;;0.30;0.03;;;;;;;11.52;100.00;95842.44;10489633;28;20032;-66
2022/02/16 23:23:17;;;;;;;0.20;0.00;;;;;;;11.56;100.00;95827.44;10489315;28;20060;-65
2022/02/16 23:28:21;;;;;;;0.10;0.00;;;;;;;11.55;100.00;95864.34;10489575;28;20067;-65
2022/02/16 23:33:25;;;;;;;0.68;0.00;;;;;;;11.69;100.00;95834.50;10488784;28;20056;-64
2022/02/16 23:38:28;;;;;;;0.08;0.00;;;;;;;11.72;100.00;95851.03;10487188;28;20037;-66
2022/02/16 23:43:34;;;;;;;0.00;0.00;;;;;;;11.78;100.00;95810.72;10492548;28;20066;-65
2022/02/16 23:48:37;;;;;;;0.10;0.00;;;;;;;11.82;100.00;95766.84;10495506;28;20068;-65
2022/02/16 23:53:41;;;;;;;0.00;0.00;;;;;;;11.83;100.00;95762.25;10487186;28;20041;-65
2022/02/16 23:58:48;;;;;;;0.00;0.00;;;;;;;11.74;100.00;95791.47;10469232;28;20397;-66
